sensor_id;sensor_type;location;lat;lon;timestamp;P1;durP1;ratioP1;P2;durP2;ratioP2
26620;SDS011;14253;44.840;10.444;2023-03-01T00:01:33;30.55;;;17.25;;
26620;SDS011;14253;44.840;10.444;2023-03-01T00:03:59;33.42;;;17.40;;
26620;SDS011;14253;44.840;10.444;2023-03-01T00:06:26;30.92;;;16.05;;
26620;SDS011;14253;44.840;10.444;2023-03-01T00:08:52;26.02;;;14.38;;
26620;SDS011;14253;44.840;10.444;2023-03-01T00:11:20;23.77;;;14.75;;
26620;SDS011;14253;44.840;10.444;2023-03-01T00:13:49;28.60;;;15.30;;
26620;SDS011;14253;44.840;10.444;2023-03-01T00:16:21;23.98;;;13.73;;
26620;SDS011;14253;44.840;10.444;2023-03-01T00:18:53;24.95;;;14.25;;
26620;SDS011;14253;44.840;10.444;2023-03-01T00:21:20;24.92;;;14.65;;
26620;SDS011;14253;44.840;10.444;2023-03-01T00:23:47;24.05;;;14.57;;
26620;SDS011;14253;44.840;10.444;2023-03-01T00:26:14;30.58;;;15.45;;
26620;SDS011;14253;44.840;10.444;2023-03-01T00:28:41;25.73;;;14.52;;
26620;SDS011;14253;44.840;10.444;2023-03-01T00:31:09;29.02;;;15.07;;
26620;SDS011;14253;44.840;10.444;2023-03-01T00:33:37;30.10;;;14.55;;
26620;SDS011;14253;44.840;10.444;2023-03-01T00:36:04;24.23;;;13.93;;
26620;SDS011;14253;44.840;10.444;2023-03-01T00:38:30;23.75;;;13.63;;
26620;SDS011;14253;44.840;10.444;2023-03-01T00:41:04;25.42;;;13.48;;
26620;SDS011;14253;44.840;10.444;2023-03-01T00:43:31;23.67;;;13.73;;
26620;SDS011;14253;44.840;10.444;2023-03-01T00:46:02;25.23;;;14.73;;
26620;SDS011;14253;44.840;10.444;2023-03-01T00:48:36;21.70;;;12.68;;
26620;SDS011;14253;44.840;10.444;2023-03-01T00:51:11;24.23;;;14.70;;
26620;SDS011;14253;44.840;10.444;2023-03-01T00:53:39;24.65;;;14.75;;
26620;SDS011;14253;44.840;10.444;2023-03-01T00:56:06;24.83;;;13.90;;
26620;SDS011;14253;44.840;10.444;2023-03-01T00:58:34;25.45;;;14.45;;
26620;SDS011;14253;44.840;10.444;2023-03-01T01:01:00;25.88;;;14.45;;
26620;SDS011;14253;44.840;10.444;2023-03-01T01:03:32;22.70;;;14.35;;
26620;SDS011;14253;44.840;10.444;2023-03-01T01:05:58;27.88;;;14.75;;
26620;SDS011;14253;44.840;10.444;2023-03-01T01:08:24;23.42;;;14.63;;
26620;SDS011;14253;44.840;10.444;2023-03-01T01:10:49;27.50;;;15.27;;
26620;SDS011;14253;44.840;10.444;2023-03-01T01:13:15;23.48;;;14.77;;
26620;SDS011;14253;44.840;10.444;2023-03-01T01:15:41;28.15;;;14.23;;
26620;SDS011;14253;44.840;10.444;2023-03-01T01:18:07;24.30;;;14.13;;
26620;SDS011;14253;44.840;10.444;2023-03-01T01:20:35;27.00;;;14.48;;
26620;SDS011;14253;44.840;10.444;2023-03-01T01:23:04;23.63;;;15.25;;
26620;SDS011;14253;44.840;10.444;2023-03-01T01:25:30;28.05;;;14.82;;
26620;SDS011;14253;44.840;10.444;2023-03-01T01:28:00;31.42;;;14.80;;
26620;SDS011;14253;44.840;10.444;2023-03-01T01:30:26;24.10;;;13.75;;
26620;SDS011;14253;44.840;10.444;2023-03-01T01:32:51;26.90;;;14.63;;
26620;SDS011;14253;44.840;10.444;2023-03-01T01:35:17;28.02;;;14.70;;
26620;SDS011;14253;44.840;10.444;2023-03-01T01:37:43;28.55;;;15.23;;
26620;SDS011;14253;44.840;10.444;2023-03-01T01:40:09;28.92;;;15.07;;
26620;SDS011;14253;44.840;10.444;2023-03-01T01:42:36;28.83;;;16.98;;
26620;SDS011;14253;44.840;10.444;2023-03-01T01:47:53;26.75;;;16.02;;
26620;SDS011;14253;44.840;10.444;2023-03-01T01:50:22;26.90;;;15.35;;
26620;SDS011;14253;44.840;10.444;2023-03-01T01:52:49;31.80;;;15.70;;
26620;SDS011;14253;44.840;10.444;2023-03-01T01:55:19;28.40;;;15.68;;
26620;SDS011;14253;44.840;10.444;2023-03-01T01:57:52;27.23;;;15.10;;
26620;SDS011;14253;44.840;10.444;2023-03-01T02:02:49;27.58;;;14.02;;
26620;SDS011;14253;44.840;10.444;2023-03-01T02:05:38;28.85;;;14.73;;
26620;SDS011;14253;44.840;10.444;2023-03-01T02:08:05;26.92;;;14.55;;
26620;SDS011;14253;44.840;10.444;2023-03-01T02:10:33;30.20;;;16.63;;
26620;SDS011;14253;44.840;10.444;2023-03-01T02:13:01;28.55;;;14.40;;
26620;SDS011;14253;44.840;10.444;2023-03-01T02:15:31;31.55;;;16.05;;
26620;SDS011;14253;44.840;10.444;2023-03-01T02:17:58;31.27;;;17.88;;
26620;SDS011;14253;44.840;10.444;2023-03-01T02:23:06;28.48;;;15.60;;
26620;SDS011;14253;44.840;10.444;2023-03-01T02:25:39;30.35;;;15.65;;
26620;SDS011;14253;44.840;10.444;2023-03-01T02:30:41;34.22;;;16.10;;
26620;SDS011;14253;44.840;10.444;2023-03-01T02:33:31;30.55;;;16.00;;
26620;SDS011;14253;44.840;10.444;2023-03-01T02:36:09;27.25;;;15.57;;
26620;SDS011;14253;44.840;10.444;2023-03-01T02:38:47;30.05;;;16.25;;
26620;SDS011;14253;44.840;10.444;2023-03-01T02:41:15;27.75;;;16.35;;
26620;SDS011;14253;44.840;10.444;2023-03-01T02:43:44;35.03;;;16.33;;
26620;SDS011;14253;44.840;10.444;2023-03-01T02:46:17;34.85;;;18.10;;
26620;SDS011;14253;44.840;10.444;2023-03-01T02:48:49;32.15;;;16.77;;
26620;SDS011;14253;44.840;10.444;2023-03-01T02:53:56;28.42;;;16.33;;
26620;SDS011;14253;44.840;10.444;2023-03-01T02:56:35;34.33;;;15.55;;
26620;SDS011;14253;44.840;10.444;2023-03-01T02:59:02;28.23;;;15.70;;
26620;SDS011;14253;44.840;10.444;2023-03-01T03:01:29;30.95;;;15.93;;
26620;SDS011;14253;44.840;10.444;2023-03-01T03:04:07;28.70;;;14.93;;
26620;SDS011;14253;44.840;10.444;2023-03-01T03:06:36;33.38;;;17.48;;
26620;SDS011;14253;44.840;10.444;2023-03-01T03:09:02;32.30;;;15.57;;
26620;SDS011;14253;44.840;10.444;2023-03-01T03:11:29;31.20;;;16.20;;
26620;SDS011;14253;44.840;10.444;2023-03-01T03:13:57;26.25;;;15.50;;
26620;SDS011;14253;44.840;10.444;2023-03-01T03:16:23;29.13;;;16.58;;
26620;SDS011;14253;44.840;10.444;2023-03-01T03:18:50;27.95;;;15.20;;
26620;SDS011;14253;44.840;10.444;2023-03-01T03:21:16;30.85;;;15.88;;
26620;SDS011;14253;44.840;10.444;2023-03-01T03:23:42;32.55;;;17.27;;
26620;SDS011;14253;44.840;10.444;2023-03-01T03:26:08;31.35;;;15.80;;
26620;SDS011;14253;44.840;10.444;2023-03-01T03:28:38;27.05;;;15.27;;
26620;SDS011;14253;44.840;10.444;2023-03-01T03:31:06;28.48;;;15.25;;
26620;SDS011;14253;44.840;10.444;2023-03-01T03:33:32;32.88;;;16.65;;
26620;SDS011;14253;44.840;10.444;2023-03-01T03:35:58;28.27;;;15.60;;
26620;SDS011;14253;44.840;10.444;2023-03-01T03:38:24;29.60;;;16.40;;
26620;SDS011;14253;44.840;10.444;2023-03-01T03:40:51;29.92;;;16.17;;
26620;SDS011;14253;44.840;10.444;2023-03-01T03:43:28;27.58;;;14.43;;
26620;SDS011;14253;44.840;10.444;2023-03-01T03:45:56;31.40;;;16.02;;
26620;SDS011;14253;44.840;10.444;2023-03-01T03:48:22;29.23;;;15.15;;
26620;SDS011;14253;44.840;10.444;2023-03-01T03:50:50;34.25;;;16.17;;
26620;SDS011;14253;44.840;10.444;2023-03-01T03:53:18;32.88;;;17.10;;
26620;SDS011;14253;44.840;10.444;2023-03-01T03:55:45;31.75;;;16.33;;
26620;SDS011;14253;44.840;10.444;2023-03-01T03:58:14;33.40;;;17.48;;
26620;SDS011;14253;44.840;10.444;2023-03-01T04:00:42;35.35;;;16.98;;
26620;SDS011;14253;44.840;10.444;2023-03-01T04:03:10;35.17;;;17.05;;
26620;SDS011;14253;44.840;10.444;2023-03-01T04:05:38;28.55;;;16.08;;
26620;SDS011;14253;44.840;10.444;2023-03-01T04:08:05;32.78;;;15.90;;
26620;SDS011;14253;44.840;10.444;2023-03-01T04:10:35;30.08;;;15.90;;
26620;SDS011;14253;44.840;10.444;2023-03-01T04:13:08;31.65;;;17.67;;
26620;SDS011;14253;44.840;10.444;2023-03-01T04:15:36;28.10;;;14.98;;
26620;SDS011;14253;44.840;10.444;2023-03-01T04:18:02;28.33;;;15.82;;
26620;SDS011;14253;44.840;10.444;2023-03-01T04:20:29;33.47;;;16.90;;
26620;SDS011;14253;44.840;10.444;2023-03-01T04:23:07;31.75;;;16.92;;
26620;SDS011;14253;44.840;10.444;2023-03-01T04:25:39;28.02;;;15.18;;
26620;SDS011;14253;44.840;10.444;2023-03-01T04:28:06;28.52;;;14.75;;
26620;SDS011;14253;44.840;10.444;2023-03-01T04:30:33;33.10;;;16.52;;
26620;SDS011;14253;44.840;10.444;2023-03-01T04:33:01;30.05;;;16.90;;
26620;SDS011;14253;44.840;10.444;2023-03-01T04:35:29;26.65;;;16.25;;
26620;SDS011;14253;44.840;10.444;2023-03-01T04:37:55;26.38;;;15.13;;
26620;SDS011;14253;44.840;10.444;2023-03-01T04:40:21;30.58;;;15.68;;
26620;SDS011;14253;44.840;10.444;2023-03-01T04:42:47;32.88;;;16.60;;
26620;SDS011;14253;44.840;10.444;2023-03-01T04:45:13;27.02;;;14.55;;
26620;SDS011;14253;44.840;10.444;2023-03-01T04:47:40;33.80;;;16.52;;
26620;SDS011;14253;44.840;10.444;2023-03-01T04:50:08;26.52;;;16.05;;
26620;SDS011;14253;44.840;10.444;2023-03-01T04:52:35;29.55;;;14.75;;
26620;SDS011;14253;44.840;10.444;2023-03-01T04:55:01;28.95;;;15.38;;
26620;SDS011;14253;44.840;10.444;2023-03-01T04:57:28;31.65;;;16.25;;
26620;SDS011;14253;44.840;10.444;2023-03-01T04:59:54;27.77;;;16.02;;
26620;SDS011;14253;44.840;10.444;2023-03-01T05:02:21;28.20;;;15.48;;
26620;SDS011;14253;44.840;10.444;2023-03-01T05:04:46;29.02;;;16.00;;
26620;SDS011;14253;44.840;10.444;2023-03-01T05:07:12;31.70;;;16.92;;
26620;SDS011;14253;44.840;10.444;2023-03-01T05:09:47;28.65;;;16.27;;
26620;SDS011;14253;44.840;10.444;2023-03-01T05:12:14;27.10;;;15.40;;
26620;SDS011;14253;44.840;10.444;2023-03-01T05:14:40;25.17;;;14.88;;
26620;SDS011;14253;44.840;10.444;2023-03-01T05:17:06;36.90;;;16.83;;
26620;SDS011;14253;44.840;10.444;2023-03-01T05:19:33;28.40;;;16.23;;
26620;SDS011;14253;44.840;10.444;2023-03-01T05:21:59;34.15;;;17.17;;
26620;SDS011;14253;44.840;10.444;2023-03-01T05:24:32;36.13;;;17.52;;
26620;SDS011;14253;44.840;10.444;2023-03-01T05:26:59;30.27;;;17.00;;
26620;SDS011;14253;44.840;10.444;2023-03-01T05:29:27;33.28;;;17.30;;
26620;SDS011;14253;44.840;10.444;2023-03-01T05:31:54;29.63;;;17.02;;
26620;SDS011;14253;44.840;10.444;2023-03-01T05:34:33;33.60;;;17.52;;
26620;SDS011;14253;44.840;10.444;2023-03-01T05:37:01;35.72;;;18.15;;
26620;SDS011;14253;44.840;10.444;2023-03-01T05:39:28;31.20;;;17.02;;
26620;SDS011;14253;44.840;10.444;2023-03-01T05:41:55;31.92;;;17.77;;
26620;SDS011;14253;44.840;10.444;2023-03-01T05:44:23;28.95;;;16.15;;
26620;SDS011;14253;44.840;10.444;2023-03-01T05:46:50;33.60;;;15.98;;
26620;SDS011;14253;44.840;10.444;2023-03-01T05:49:17;30.35;;;16.60;;
26620;SDS011;14253;44.840;10.444;2023-03-01T05:51:45;28.88;;;15.90;;
26620;SDS011;14253;44.840;10.444;2023-03-01T05:54:16;34.58;;;17.05;;
26620;SDS011;14253;44.840;10.444;2023-03-01T05:56:43;33.50;;;18.25;;
26620;SDS011;14253;44.840;10.444;2023-03-01T05:59:10;36.40;;;17.25;;
26620;SDS011;14253;44.840;10.444;2023-03-01T06:01:37;34.95;;;16.70;;
26620;SDS011;14253;44.840;10.444;2023-03-01T06:04:03;30.13;;;16.40;;
26620;SDS011;14253;44.840;10.444;2023-03-01T06:06:36;30.60;;;17.15;;
26620;SDS011;14253;44.840;10.444;2023-03-01T06:09:03;38.38;;;18.98;;
26620;SDS011;14253;44.840;10.444;2023-03-01T06:11:36;35.28;;;17.63;;
26620;SDS011;14253;44.840;10.444;2023-03-01T06:14:33;35.30;;;18.75;;
26620;SDS011;14253;44.840;10.444;2023-03-01T06:17:16;33.03;;;17.38;;
26620;SDS011;14253;44.840;10.444;2023-03-01T06:19:42;33.45;;;17.63;;
26620;SDS011;14253;44.840;10.444;2023-03-01T06:22:09;30.42;;;17.63;;
26620;SDS011;14253;44.840;10.444;2023-03-01T06:24:37;40.25;;;20.08;;
26620;SDS011;14253;44.840;10.444;2023-03-01T06:27:03;35.97;;;18.10;;
26620;SDS011;14253;44.840;10.444;2023-03-01T06:29:29;39.10;;;20.33;;
26620;SDS011;14253;44.840;10.444;2023-03-01T06:31:55;36.72;;;18.98;;
26620;SDS011;14253;44.840;10.444;2023-03-01T06:34:21;36.50;;;19.48;;
26620;SDS011;14253;44.840;10.444;2023-03-01T06:36:47;36.05;;;20.10;;
26620;SDS011;14253;44.840;10.444;2023-03-01T06:39:13;34.13;;;18.73;;
26620;SDS011;14253;44.840;10.444;2023-03-01T06:41:41;34.63;;;18.85;;
26620;SDS011;14253;44.840;10.444;2023-03-01T06:44:07;34.45;;;18.75;;
26620;SDS011;14253;44.840;10.444;2023-03-01T06:46:33;39.53;;;18.98;;
26620;SDS011;14253;44.840;10.444;2023-03-01T06:48:59;35.22;;;18.40;;
26620;SDS011;14253;44.840;10.444;2023-03-01T06:51:25;37.25;;;18.80;;
26620;SDS011;14253;44.840;10.444;2023-03-01T06:53:51;38.47;;;19.10;;
26620;SDS011;14253;44.840;10.444;2023-03-01T06:56:17;35.45;;;17.13;;
26620;SDS011;14253;44.840;10.444;2023-03-01T06:58:43;32.45;;;18.95;;
26620;SDS011;14253;44.840;10.444;2023-03-01T07:01:09;36.00;;;17.98;;
26620;SDS011;14253;44.840;10.444;2023-03-01T07:03:35;35.22;;;18.25;;
26620;SDS011;14253;44.840;10.444;2023-03-01T07:06:01;35.03;;;17.75;;
26620;SDS011;14253;44.840;10.444;2023-03-01T07:08:27;32.80;;;17.85;;
26620;SDS011;14253;44.840;10.444;2023-03-01T07:10:56;32.20;;;18.10;;
26620;SDS011;14253;44.840;10.444;2023-03-01T07:13:23;30.30;;;17.02;;
26620;SDS011;14253;44.840;10.444;2023-03-01T07:15:49;30.50;;;16.55;;
26620;SDS011;14253;44.840;10.444;2023-03-01T07:18:15;33.35;;;16.92;;
26620;SDS011;14253;44.840;10.444;2023-03-01T07:20:41;34.05;;;17.40;;
26620;SDS011;14253;44.840;10.444;2023-03-01T07:23:07;28.50;;;16.73;;
26620;SDS011;14253;44.840;10.444;2023-03-01T07:25:33;30.17;;;17.42;;
26620;SDS011;14253;44.840;10.444;2023-03-01T07:27:59;32.60;;;16.23;;
26620;SDS011;14253;44.840;10.444;2023-03-01T07:30:25;25.42;;;15.80;;
26620;SDS011;14253;44.840;10.444;2023-03-01T07:32:53;27.92;;;15.50;;
26620;SDS011;14253;44.840;10.444;2023-03-01T07:35:20;28.35;;;14.40;;
26620;SDS011;14253;44.840;10.444;2023-03-01T07:37:47;27.02;;;14.43;;
26620;SDS011;14253;44.840;10.444;2023-03-01T07:40:13;25.52;;;13.52;;
26620;SDS011;14253;44.840;10.444;2023-03-01T07:42:39;26.05;;;14.75;;
26620;SDS011;14253;44.840;10.444;2023-03-01T07:45:05;25.55;;;13.52;;
26620;SDS011;14253;44.840;10.444;2023-03-01T07:47:31;22.95;;;12.52;;
26620;SDS011;14253;44.840;10.444;2023-03-01T07:49:57;23.67;;;12.85;;
26620;SDS011;14253;44.840;10.444;2023-03-01T07:52:23;21.33;;;12.27;;
26620;SDS011;14253;44.840;10.444;2023-03-01T07:54:49;23.45;;;13.07;;
26620;SDS011;14253;44.840;10.444;2023-03-01T07:57:15;22.65;;;12.48;;
26620;SDS011;14253;44.840;10.444;2023-03-01T07:59:41;20.33;;;11.68;;
26620;SDS011;14253;44.840;10.444;2023-03-01T08:02:08;24.40;;;13.15;;
26620;SDS011;14253;44.840;10.444;2023-03-01T08:04:35;22.58;;;12.80;;
26620;SDS011;14253;44.840;10.444;2023-03-01T08:07:01;24.45;;;12.90;;
26620;SDS011;14253;44.840;10.444;2023-03-01T08:09:30;24.88;;;13.50;;
26620;SDS011;14253;44.840;10.444;2023-03-01T08:11:56;23.80;;;12.70;;
26620;SDS011;14253;44.840;10.444;2023-03-01T08:14:24;21.15;;;12.40;;
26620;SDS011;14253;44.840;10.444;2023-03-01T08:16:50;22.92;;;12.93;;
26620;SDS011;14253;44.840;10.444;2023-03-01T08:19:16;23.67;;;12.48;;
26620;SDS011;14253;44.840;10.444;2023-03-01T08:21:43;22.33;;;13.30;;
26620;SDS011;14253;44.840;10.444;2023-03-01T08:24:09;30.90;;;16.67;;
26620;SDS011;14253;44.840;10.444;2023-03-01T08:26:35;30.55;;;17.02;;
26620;SDS011;14253;44.840;10.444;2023-03-01T08:29:02;27.48;;;16.85;;
26620;SDS011;14253;44.840;10.444;2023-03-01T08:31:30;33.55;;;16.92;;
26620;SDS011;14253;44.840;10.444;2023-03-01T08:34:01;32.58;;;17.27;;
26620;SDS011;14253;44.840;10.444;2023-03-01T08:36:32;35.55;;;17.08;;
26620;SDS011;14253;44.840;10.444;2023-03-01T08:39:02;32.80;;;16.15;;
26620;SDS011;14253;44.840;10.444;2023-03-01T08:41:29;32.25;;;18.77;;
26620;SDS011;14253;44.840;10.444;2023-03-01T08:43:56;33.03;;;17.40;;
26620;SDS011;14253;44.840;10.444;2023-03-01T08:46:32;32.00;;;17.80;;
26620;SDS011;14253;44.840;10.444;2023-03-01T08:49:05;31.55;;;17.05;;
26620;SDS011;14253;44.840;10.444;2023-03-01T08:51:33;28.27;;;16.15;;
26620;SDS011;14253;44.840;10.444;2023-03-01T08:54:12;29.48;;;16.38;;
26620;SDS011;14253;44.840;10.444;2023-03-01T08:56:40;28.35;;;16.40;;
26620;SDS011;14253;44.840;10.444;2023-03-01T08:59:06;30.55;;;14.85;;
26620;SDS011;14253;44.840;10.444;2023-03-01T09:01:32;29.33;;;15.70;;
26620;SDS011;14253;44.840;10.444;2023-03-01T09:03:59;26.23;;;15.60;;
26620;SDS011;14253;44.840;10.444;2023-03-01T09:06:25;24.30;;;15.27;;
26620;SDS011;14253;44.840;10.444;2023-03-01T09:08:51;27.85;;;15.45;;
26620;SDS011;14253;44.840;10.444;2023-03-01T09:11:18;26.73;;;15.40;;
26620;SDS011;14253;44.840;10.444;2023-03-01T09:13:46;26.27;;;15.00;;
26620;SDS011;14253;44.840;10.444;2023-03-01T09:16:14;29.95;;;15.32;;
26620;SDS011;14253;44.840;10.444;2023-03-01T09:18:43;25.95;;;15.65;;
26620;SDS011;14253;44.840;10.444;2023-03-01T09:21:10;26.75;;;14.95;;
26620;SDS011;14253;44.840;10.444;2023-03-01T09:23:41;28.80;;;16.73;;
26620;SDS011;14253;44.840;10.444;2023-03-01T09:26:09;28.40;;;15.90;;
26620;SDS011;14253;44.840;10.444;2023-03-01T09:28:41;28.02;;;14.70;;
26620;SDS011;14253;44.840;10.444;2023-03-01T09:31:09;26.20;;;14.77;;
26620;SDS011;14253;44.840;10.444;2023-03-01T09:33:38;25.98;;;14.93;;
26620;SDS011;14253;44.840;10.444;2023-03-01T09:36:05;24.85;;;13.82;;
26620;SDS011;14253;44.840;10.444;2023-03-01T09:38:33;23.60;;;13.93;;
26620;SDS011;14253;44.840;10.444;2023-03-01T09:40:59;27.70;;;14.48;;
26620;SDS011;14253;44.840;10.444;2023-03-01T09:43:46;27.48;;;14.93;;
26620;SDS011;14253;44.840;10.444;2023-03-01T09:46:19;28.02;;;14.50;;
26620;SDS011;14253;44.840;10.444;2023-03-01T09:48:58;26.35;;;13.55;;
26620;SDS011;14253;44.840;10.444;2023-03-01T09:52:03;25.50;;;13.50;;
26620;SDS011;14253;44.840;10.444;2023-03-01T09:54:46;28.00;;;14.35;;
26620;SDS011;14253;44.840;10.444;2023-03-01T10:02:23;30.20;;;15.07;;
26620;SDS011;14253;44.840;10.444;2023-03-01T10:08:14;25.67;;;13.80;;
26620;SDS011;14253;44.840;10.444;2023-03-01T10:10:37;26.20;;;14.23;;
26620;SDS011;14253;44.840;10.444;2023-03-01T10:13:19;23.38;;;13.02;;
26620;SDS011;14253;44.840;10.444;2023-03-01T10:16:04;24.67;;;13.43;;
26620;SDS011;14253;44.840;10.444;2023-03-01T10:18:39;25.95;;;13.77;;
26620;SDS011;14253;44.840;10.444;2023-03-01T10:21:15;27.75;;;13.20;;
26620;SDS011;14253;44.840;10.444;2023-03-01T10:23:44;27.58;;;13.50;;
26620;SDS011;14253;44.840;10.444;2023-03-01T10:31:24;27.48;;;13.13;;
26620;SDS011;14253;44.840;10.444;2023-03-01T10:33:54;26.13;;;12.93;;
26620;SDS011;14253;44.840;10.444;2023-03-01T10:36:22;25.75;;;14.05;;
26620;SDS011;14253;44.840;10.444;2023-03-01T10:41:14;19.80;;;12.07;;
26620;SDS011;14253;44.840;10.444;2023-03-01T10:44:01;24.67;;;12.63;;
26620;SDS011;14253;44.840;10.444;2023-03-01T10:46:31;23.58;;;12.43;;
26620;SDS011;14253;44.840;10.444;2023-03-01T10:49:12;25.48;;;12.48;;
26620;SDS011;14253;44.840;10.444;2023-03-01T10:51:45;25.27;;;12.60;;
26620;SDS011;14253;44.840;10.444;2023-03-01T10:54:27;25.65;;;12.88;;
26620;SDS011;14253;44.840;10.444;2023-03-01T10:56:56;21.27;;;12.02;;
26620;SDS011;14253;44.840;10.444;2023-03-01T10:59:30;24.65;;;12.20;;
26620;SDS011;14253;44.840;10.444;2023-03-01T11:02:43;19.55;;;11.60;;
26620;SDS011;14253;44.840;10.444;2023-03-01T11:05:03;18.70;;;11.07;;
26620;SDS011;14253;44.840;10.444;2023-03-01T11:07:55;21.83;;;11.73;;
26620;SDS011;14253;44.840;10.444;2023-03-01T11:10:23;20.73;;;11.98;;
26620;SDS011;14253;44.840;10.444;2023-03-01T11:12:50;21.60;;;12.25;;
26620;SDS011;14253;44.840;10.444;2023-03-01T11:15:21;22.33;;;11.88;;
26620;SDS011;14253;44.840;10.444;2023-03-01T11:17:52;21.23;;;11.68;;
26620;SDS011;14253;44.840;10.444;2023-03-01T11:20:24;25.58;;;11.50;;
26620;SDS011;14253;44.840;10.444;2023-03-01T11:25:38;22.52;;;12.00;;
26620;SDS011;14253;44.840;10.444;2023-03-01T11:28:07;19.88;;;11.23;;
26620;SDS011;14253;44.840;10.444;2023-03-01T11:33:41;20.17;;;11.00;;
26620;SDS011;14253;44.840;10.444;2023-03-01T11:39:05;18.38;;;10.35;;
26620;SDS011;14253;44.840;10.444;2023-03-01T11:41:44;24.58;;;12.30;;
26620;SDS011;14253;44.840;10.444;2023-03-01T11:44:21;22.85;;;11.05;;
26620;SDS011;14253;44.840;10.444;2023-03-01T11:47:06;20.73;;;10.73;;
26620;SDS011;14253;44.840;10.444;2023-03-01T12:00:15;23.08;;;11.95;;
26620;SDS011;14253;44.840;10.444;2023-03-01T12:14:02;28.88;;;15.07;;
26620;SDS011;14253;44.840;10.444;2023-03-01T12:17:25;31.00;;;18.33;;
26620;SDS011;14253;44.840;10.444;2023-03-01T12:35:46;29.80;;;15.65;;
26620;SDS011;14253;44.840;10.444;2023-03-01T12:49:30;31.33;;;16.15;;
26620;SDS011;14253;44.840;10.444;2023-03-01T12:52:02;29.05;;;17.20;;
26620;SDS011;14253;44.840;10.444;2023-03-01T12:54:41;32.03;;;17.02;;
26620;SDS011;14253;44.840;10.444;2023-03-01T12:57:16;33.03;;;17.27;;
26620;SDS011;14253;44.840;10.444;2023-03-01T13:02:55;31.38;;;16.35;;
26620;SDS011;14253;44.840;10.444;2023-03-01T13:08:42;33.75;;;17.98;;
26620;SDS011;14253;44.840;10.444;2023-03-01T13:11:35;30.80;;;16.27;;
26620;SDS011;14253;44.840;10.444;2023-03-01T13:14:46;28.23;;;16.10;;
26620;SDS011;14253;44.840;10.444;2023-03-01T13:16:53;37.55;;;18.63;;
26620;SDS011;14253;44.840;10.444;2023-03-01T13:19:20;37.10;;;19.15;;
26620;SDS011;14253;44.840;10.444;2023-03-01T13:21:47;32.72;;;18.20;;
26620;SDS011;14253;44.840;10.444;2023-03-01T13:29:48;34.92;;;17.70;;
26620;SDS011;14253;44.840;10.444;2023-03-01T13:35:03;33.25;;;18.80;;
26620;SDS011;14253;44.840;10.444;2023-03-01T13:37:44;33.20;;;18.07;;
26620;SDS011;14253;44.840;10.444;2023-03-01T13:42:44;33.63;;;17.00;;
26620;SDS011;14253;44.840;10.444;2023-03-01T13:47:58;33.78;;;18.42;;
26620;SDS011;14253;44.840;10.444;2023-03-01T13:50:28;31.92;;;18.15;;
26620;SDS011;14253;44.840;10.444;2023-03-01T13:53:05;30.95;;;16.67;;
26620;SDS011;14253;44.840;10.444;2023-03-01T13:55:41;34.10;;;17.70;;
26620;SDS011;14253;44.840;10.444;2023-03-01T14:00:58;39.95;;;20.05;;
26620;SDS011;14253;44.840;10.444;2023-03-01T14:03:34;39.03;;;19.55;;
26620;SDS011;14253;44.840;10.444;2023-03-01T14:06:09;37.45;;;20.15;;
26620;SDS011;14253;44.840;10.444;2023-03-01T14:08:45;31.67;;;17.95;;
26620;SDS011;14253;44.840;10.444;2023-03-01T14:17:05;37.50;;;19.02;;
26620;SDS011;14253;44.840;10.444;2023-03-01T14:19:56;30.88;;;16.42;;
26620;SDS011;14253;44.840;10.444;2023-03-01T14:22:25;31.92;;;17.60;;
26620;SDS011;14253;44.840;10.444;2023-03-01T14:24:59;35.20;;;17.60;;
26620;SDS011;14253;44.840;10.444;2023-03-01T14:27:42;36.05;;;19.60;;
26620;SDS011;14253;44.840;10.444;2023-03-01T14:38:40;31.10;;;17.08;;
26620;SDS011;14253;44.840;10.444;2023-03-01T14:41:12;32.28;;;18.10;;
26620;SDS011;14253;44.840;10.444;2023-03-01T14:43:51;29.85;;;16.50;;
26620;SDS011;14253;44.840;10.444;2023-03-01T14:46:28;35.55;;;18.13;;
26620;SDS011;14253;44.840;10.444;2023-03-01T14:48:58;32.97;;;17.70;;
26620;SDS011;14253;44.840;10.444;2023-03-01T14:51:28;28.48;;;16.88;;
26620;SDS011;14253;44.840;10.444;2023-03-01T14:53:54;31.63;;;18.08;;
26620;SDS011;14253;44.840;10.444;2023-03-01T14:56:21;30.15;;;16.70;;
26620;SDS011;14253;44.840;10.444;2023-03-01T14:58:50;28.98;;;16.40;;
26620;SDS011;14253;44.840;10.444;2023-03-01T15:01:17;35.60;;;18.10;;
26620;SDS011;14253;44.840;10.444;2023-03-01T15:03:45;27.98;;;16.05;;
26620;SDS011;14253;44.840;10.444;2023-03-01T15:06:15;27.58;;;17.10;;
26620;SDS011;14253;44.840;10.444;2023-03-01T15:08:45;29.95;;;16.73;;
26620;SDS011;14253;44.840;10.444;2023-03-01T15:13:48;30.23;;;17.13;;
26620;SDS011;14253;44.840;10.444;2023-03-01T15:16:21;32.60;;;17.20;;
26620;SDS011;14253;44.840;10.444;2023-03-01T15:18:54;29.35;;;17.08;;
26620;SDS011;14253;44.840;10.444;2023-03-01T15:21:32;30.10;;;16.90;;
26620;SDS011;14253;44.840;10.444;2023-03-01T15:24:17;34.28;;;18.25;;
26620;SDS011;14253;44.840;10.444;2023-03-01T15:26:52;30.80;;;18.23;;
26620;SDS011;14253;44.840;10.444;2023-03-01T15:29:24;32.63;;;17.20;;
26620;SDS011;14253;44.840;10.444;2023-03-01T15:34:35;35.35;;;18.42;;
26620;SDS011;14253;44.840;10.444;2023-03-01T15:37:03;31.48;;;16.52;;
26620;SDS011;14253;44.840;10.444;2023-03-01T15:39:32;30.95;;;15.73;;
26620;SDS011;14253;44.840;10.444;2023-03-01T15:45:10;30.40;;;16.52;;
26620;SDS011;14253;44.840;10.444;2023-03-01T15:47:38;29.75;;;17.13;;
26620;SDS011;14253;44.840;10.444;2023-03-01T15:50:11;29.88;;;16.00;;
26620;SDS011;14253;44.840;10.444;2023-03-01T15:52:47;30.42;;;16.27;;
26620;SDS011;14253;44.840;10.444;2023-03-01T15:55:22;36.42;;;18.88;;
26620;SDS011;14253;44.840;10.444;2023-03-01T15:57:48;31.80;;;17.85;;
26620;SDS011;14253;44.840;10.444;2023-03-01T16:00:15;32.15;;;17.65;;
26620;SDS011;14253;44.840;10.444;2023-03-01T16:02:42;33.55;;;17.73;;
26620;SDS011;14253;44.840;10.444;2023-03-01T16:05:28;29.73;;;18.45;;
26620;SDS011;14253;44.840;10.444;2023-03-01T16:07:58;35.17;;;18.17;;
26620;SDS011;14253;44.840;10.444;2023-03-01T16:10:25;32.97;;;17.63;;
26620;SDS011;14253;44.840;10.444;2023-03-01T16:12:52;33.05;;;19.33;;
26620;SDS011;14253;44.840;10.444;2023-03-01T16:15:20;38.80;;;19.25;;
26620;SDS011;14253;44.840;10.444;2023-03-01T16:17:53;33.83;;;18.77;;
26620;SDS011;14253;44.840;10.444;2023-03-01T16:20:22;38.33;;;19.35;;
26620;SDS011;14253;44.840;10.444;2023-03-01T16:22:49;40.25;;;18.63;;
26620;SDS011;14253;44.840;10.444;2023-03-01T16:25:16;32.70;;;17.02;;
26620;SDS011;14253;44.840;10.444;2023-03-01T16:27:44;33.90;;;20.45;;
26620;SDS011;14253;44.840;10.444;2023-03-01T16:30:12;38.50;;;18.50;;
26620;SDS011;14253;44.840;10.444;2023-03-01T16:32:39;36.17;;;19.60;;
26620;SDS011;14253;44.840;10.444;2023-03-01T16:35:06;38.08;;;19.83;;
26620;SDS011;14253;44.840;10.444;2023-03-01T16:37:34;41.90;;;21.27;;